createdAt,value
2019-03-08T00:02:16.404Z,99046.09
2019-03-08T00:04:48.959Z,99048.64
2019-03-08T00:07:21.355Z,99044.71
2019-03-08T00:09:52.659Z,99057.00
2019-03-08T00:12:24.780Z,99058.00
2019-03-08T00:14:57.112Z,99063.80
2019-03-08T00:17:28.410Z,99059.13
2019-03-08T00:20:00.601Z,99066.47
2019-03-08T00:22:33.361Z,99056.73
2019-03-08T00:25:04.550Z,99057.88
2019-03-08T00:27:36.861Z,99058.45
2019-03-08T00:30:09.650Z,99059.98
2019-03-08T00:32:42.098Z,99070.11
2019-03-08T00:35:14.438Z,99071.98
2019-03-08T00:37:45.699Z,99090.64
2019-03-08T00:40:17.859Z,99102.72
2019-03-08T00:42:50.061Z,99106.39
2019-03-08T00:45:24.330Z,99111.97
2019-03-08T00:47:56.798Z,99118.08
2019-03-08T00:50:28.089Z,99123.87
2019-03-08T00:53:00.232Z,99116.91
2019-03-08T00:55:32.647Z,99124.98
2019-03-08T00:58:05.129Z,99133.87
2019-03-08T01:00:37.828Z,99129.66
2019-03-08T01:03:10.120Z,99135.59
2019-03-08T01:05:41.498Z,99137.84
2019-03-08T01:08:13.872Z,99137.97
2019-03-08T01:10:45.069Z,99141.21
2019-03-08T01:13:17.187Z,99140.34
2019-03-08T01:15:48.522Z,99146.52
2019-03-08T01:18:20.780Z,99140.86
2019-03-08T01:20:53.228Z,99147.13
2019-03-08T01:23:25.855Z,99145.15
2019-03-08T01:25:57.060Z,99150.09
2019-03-08T01:28:29.051Z,99151.11
2019-03-08T01:31:00.409Z,99150.62
2019-03-08T01:33:32.498Z,99153.59
2019-03-08T01:36:06.452Z,99160.79
2019-03-08T01:38:37.589Z,99160.81
2019-03-08T01:41:09.737Z,99161.43
2019-03-08T01:43:42.049Z,99162.01
2019-03-08T01:46:13.370Z,99157.95
2019-03-08T01:48:46.880Z,99162.06
2019-03-08T01:51:19.268Z,99166.06
2019-03-08T01:53:51.598Z,99155.37
2019-03-08T01:56:24.070Z,99153.06
2019-03-08T01:58:56.370Z,99154.27
2019-03-08T02:01:27.638Z,99154.60
2019-03-08T02:03:59.591Z,99163.23
2019-03-08T02:06:32.731Z,99167.11
2019-03-08T02:09:06.930Z,99169.13
2019-03-08T02:11:40.811Z,99169.04
2019-03-08T02:14:11.969Z,99158.73
2019-03-08T02:16:44.410Z,99156.83
2019-03-08T02:19:16.691Z,99168.73
2019-03-08T02:21:49.220Z,99164.04
2019-03-08T02:24:21.450Z,99161.75
2019-03-08T02:26:52.819Z,99156.72
2019-03-08T02:29:24.810Z,99155.73
2019-03-08T02:31:55.889Z,99160.14
2019-03-08T02:34:28.940Z,99162.34
2019-03-08T02:37:01.273Z,99164.06
2019-03-08T02:39:34.700Z,99156.11
2019-03-08T02:42:07.070Z,99155.04
2019-03-08T02:44:39.423Z,99161.75
2019-03-08T02:47:11.874Z,99166.42
2019-03-08T02:49:45.414Z,99163.58
2019-03-08T02:52:18.950Z,99167.65
2019-03-08T02:54:51.540Z,99162.76
2019-03-08T02:57:22.839Z,99166.04
2019-03-08T02:59:55.425Z,99173.20
2019-03-08T03:02:27.739Z,99182.67
2019-03-08T03:05:00.391Z,99185.13
2019-03-08T03:07:32.860Z,99185.98
2019-03-08T03:10:05.570Z,99192.11
2019-03-08T03:12:37.901Z,99184.39
2019-03-08T03:15:10.454Z,99191.86
2019-03-08T03:17:42.861Z,99186.39
2019-03-08T03:20:16.540Z,99175.47
2019-03-08T03:22:49.980Z,99182.41
2019-03-08T03:25:22.390Z,99188.62
2019-03-08T03:27:54.731Z,99182.09
2019-03-08T03:30:27.062Z,99186.70
2019-03-08T03:32:59.482Z,99191.62
2019-03-08T03:35:32.000Z,99195.81
2019-03-08T03:38:03.998Z,99192.99
2019-03-08T03:40:36.400Z,99196.05
2019-03-08T03:43:08.760Z,99193.02
2019-03-08T03:45:41.014Z,99195.18
2019-03-08T03:48:12.198Z,99204.52
2019-03-08T03:50:44.338Z,99211.41
2019-03-08T03:53:16.690Z,99208.36
2019-03-08T03:55:50.470Z,99210.48
2019-03-08T03:58:23.110Z,99212.17
2019-03-08T04:00:55.719Z,99198.62
2019-03-08T04:03:28.133Z,99205.06
2019-03-08T04:06:00.430Z,99214.33
2019-03-08T04:08:31.838Z,99215.34
2019-03-08T04:11:03.900Z,99219.30
2019-03-08T04:13:35.189Z,99218.14
2019-03-08T04:16:07.225Z,99222.36
2019-03-08T04:18:38.438Z,99206.12
2019-03-08T04:21:10.590Z,99203.20
2019-03-08T04:23:42.188Z,99202.95
2019-03-08T04:26:14.339Z,99206.42
2019-03-08T04:28:46.737Z,99211.72
2019-03-08T04:31:19.063Z,99213.95
2019-03-08T04:33:51.380Z,99218.38
2019-03-08T04:36:22.499Z,99217.45
2019-03-08T04:38:54.681Z,99215.39
2019-03-08T04:41:27.410Z,99213.54
2019-03-08T04:43:59.750Z,99205.19
2019-03-08T04:46:31.920Z,99207.42
2019-03-08T04:49:04.220Z,99209.55
2019-03-08T04:51:36.570Z,99212.09
2019-03-08T04:54:08.904Z,99214.32
2019-03-08T04:56:41.603Z,99207.00
2019-03-08T04:59:13.081Z,99209.44
2019-03-08T05:01:45.252Z,99218.05
2019-03-08T05:04:18.622Z,99218.63
2019-03-08T05:06:50.870Z,99220.25
2019-03-08T05:09:22.159Z,99219.94
2019-03-08T05:11:54.240Z,99219.80
2019-03-08T05:14:25.336Z,99227.50
2019-03-08T05:16:57.560Z,99222.16
2019-03-08T05:19:30.052Z,99218.73
2019-03-08T05:22:02.369Z,99215.70
2019-03-08T05:24:33.768Z,99210.54
2019-03-08T05:27:05.922Z,99222.22
2019-03-08T05:29:38.330Z,99232.97
2019-03-08T05:32:10.860Z,99223.98
2019-03-08T05:34:42.148Z,99226.39
2019-03-08T05:37:14.149Z,99213.09
2019-03-08T05:39:45.488Z,99221.03
2019-03-08T05:42:17.559Z,99223.64
2019-03-08T05:44:48.899Z,99223.02
2019-03-08T05:47:20.962Z,99224.27
2019-03-08T05:49:52.148Z,99227.08
2019-03-08T05:52:24.452Z,99231.98
2019-03-08T05:54:57.430Z,99233.42
2019-03-08T05:57:29.800Z,99234.48
2019-03-08T06:00:02.290Z,99236.53
2019-03-08T06:02:35.021Z,99234.53
2019-03-08T06:05:08.180Z,99233.15
2019-03-08T06:07:40.700Z,99235.09
2019-03-08T06:10:28.908Z,99228.73
2019-03-08T06:13:01.120Z,99225.38
2019-03-08T06:15:33.501Z,99217.59
2019-03-08T06:18:06.390Z,99216.58
2019-03-08T06:20:38.783Z,99226.09
2019-03-08T06:23:15.950Z,99224.88
2019-03-08T06:25:49.059Z,99226.48
2019-03-08T06:28:35.015Z,99225.78
2019-03-08T06:32:13.190Z,99225.02
2019-03-08T06:34:46.340Z,99226.42
2019-03-08T06:37:42.650Z,99220.61
2019-03-08T06:40:41.580Z,99215.39
2019-03-08T06:54:15.379Z,99221.01
2019-03-08T06:57:17.320Z,99216.09
2019-03-08T07:02:33.098Z,99215.45
2019-03-08T07:16:49.599Z,99232.36
2019-03-08T07:19:22.011Z,99223.85
2019-03-08T07:22:00.741Z,99231.80
2019-03-08T07:24:55.100Z,99226.97
2019-03-08T07:27:44.570Z,99217.16
2019-03-08T07:31:06.803Z,99212.00
2019-03-08T07:34:11.498Z,99214.69
2019-03-08T07:48:12.741Z,99200.17
2019-03-08T07:57:47.091Z,99209.58
2019-03-08T08:01:00.094Z,99214.46
2019-03-08T08:03:49.830Z,99208.97
2019-03-08T08:06:36.978Z,99206.16
2019-03-08T08:09:39.280Z,99207.32
2019-03-08T08:12:39.678Z,99210.28
2019-03-08T08:15:34.020Z,99207.66
2019-03-08T08:18:11.988Z,99205.52
2019-03-08T08:21:10.628Z,99214.11
2019-03-08T08:24:10.100Z,99200.35
2019-03-08T08:27:16.698Z,99207.19
2019-03-08T08:30:07.228Z,99213.52
2019-03-08T08:32:53.461Z,99208.41
2019-03-08T08:35:56.868Z,99207.36
2019-03-08T08:38:49.970Z,99217.36
2019-03-08T08:41:46.008Z,99221.23
2019-03-08T08:44:38.110Z,99214.06
2019-03-08T08:47:23.250Z,99213.08
2019-03-08T08:50:15.310Z,99215.55
2019-03-08T08:53:05.980Z,99216.96
2019-03-08T08:56:05.960Z,99216.23
2019-03-08T08:59:00.389Z,99215.52
2019-03-08T09:01:47.850Z,99215.09
2019-03-08T09:04:31.101Z,99210.72
2019-03-08T09:07:21.293Z,99206.23
2019-03-08T09:10:12.552Z,99204.05
2019-03-08T09:13:08.897Z,99203.02
2019-03-08T09:15:53.152Z,99201.84
2019-03-08T09:18:45.041Z,99199.56
2019-03-08T09:21:41.011Z,99193.27
2019-03-08T09:24:19.851Z,99192.30
2019-03-08T09:27:16.938Z,99197.62
2019-03-08T09:30:17.164Z,99196.62
2019-03-08T09:33:07.444Z,99197.12
2019-03-08T09:36:14.340Z,99193.13
2019-03-08T09:39:14.725Z,99189.91
2019-03-08T09:42:15.468Z,99185.50
2019-03-08T09:45:12.029Z,99176.02
2019-03-08T09:47:59.033Z,99173.39
2019-03-08T09:50:54.300Z,99167.97
2019-03-08T09:53:32.350Z,99172.53
2019-03-08T09:56:23.832Z,99165.72
2019-03-08T09:59:15.110Z,99173.38
2019-03-08T10:02:02.100Z,99164.27
2019-03-08T10:04:53.250Z,99158.89
2019-03-08T10:07:36.301Z,99155.81
2019-03-08T10:10:34.090Z,99164.27
2019-03-08T10:13:24.079Z,99157.17
2019-03-08T10:16:04.042Z,99171.89
2019-03-08T10:19:02.930Z,99163.78
2019-03-08T10:21:56.440Z,99159.77
2019-03-08T10:24:49.360Z,99147.30
2019-03-08T10:27:37.854Z,99171.19
2019-03-08T10:30:11.129Z,99150.17
2019-03-08T10:33:10.773Z,99159.61
2019-03-08T10:35:57.646Z,99156.41
2019-03-08T10:38:55.671Z,99147.05
2019-03-08T10:41:53.089Z,99142.66
2019-03-08T10:44:37.695Z,99148.80
2019-03-08T10:47:27.880Z,99156.34
2019-03-08T10:50:21.805Z,99143.43
2019-03-08T10:53:06.550Z,99142.58
2019-03-08T10:55:57.959Z,99146.62
2019-03-08T10:58:56.911Z,99140.84
2019-03-08T11:01:57.372Z,99138.25
2019-03-08T11:04:37.670Z,99133.05
2019-03-08T11:07:27.483Z,99150.69
2019-03-08T11:10:20.489Z,99148.98
2019-03-08T11:13:23.437Z,99142.23
2019-03-08T11:16:16.963Z,99142.59
2019-03-08T11:19:08.995Z,99151.61
2019-03-08T11:21:55.842Z,99143.09
2019-03-08T11:24:43.560Z,99142.72
2019-03-08T11:27:34.905Z,99144.04
2019-03-08T11:30:29.780Z,99163.11
2019-03-08T11:33:11.090Z,99142.82
2019-03-08T11:36:05.220Z,99153.52
2019-03-08T11:39:00.281Z,99156.11
2019-03-08T11:42:00.102Z,99148.70
2019-03-08T11:44:45.461Z,99138.08
2019-03-08T11:47:45.110Z,99147.88
2019-03-08T11:50:43.394Z,99149.89
2019-03-08T11:53:36.980Z,99149.36
2019-03-08T11:56:41.180Z,99151.92
2019-03-08T11:59:38.940Z,99159.69
2019-03-08T12:02:37.719Z,99147.42
2019-03-08T12:05:28.039Z,99145.67
2019-03-08T12:08:28.674Z,99139.75
2019-03-08T12:11:31.088Z,99147.08
2019-03-08T12:14:31.381Z,99147.25
2019-03-08T12:17:33.939Z,99135.86
2019-03-08T12:20:28.284Z,99140.88
2019-03-08T12:23:28.710Z,99153.79
2019-03-08T12:26:22.691Z,99134.28
2019-03-08T12:29:21.061Z,99147.03
2019-03-08T12:32:19.572Z,99148.78
2019-03-08T12:35:06.850Z,99143.67
2019-03-08T12:37:49.222Z,99141.09
2019-03-08T12:40:55.331Z,99146.66
2019-03-08T12:43:37.030Z,99132.77
2019-03-08T12:46:26.740Z,99141.12
2019-03-08T12:49:11.620Z,99147.70
2019-03-08T12:52:05.890Z,99152.16
2019-03-08T12:54:59.760Z,99148.62
2019-03-08T12:57:52.040Z,99158.83
2019-03-08T13:00:41.791Z,99147.16
2019-03-08T13:03:37.901Z,99149.70
2019-03-08T13:06:27.511Z,99152.78
2019-03-08T13:09:17.270Z,99166.30
2019-03-08T13:11:49.611Z,99168.86
2019-03-08T13:14:22.191Z,99148.17
2019-03-08T13:16:54.542Z,99180.50
2019-03-08T13:19:26.960Z,99168.91
2019-03-08T13:21:59.620Z,99177.45
2019-03-08T13:24:32.020Z,99174.39
2019-03-08T13:27:04.510Z,99183.20
2019-03-08T13:29:37.023Z,99186.78
2019-03-08T13:32:09.541Z,99178.73
2019-03-08T13:34:41.982Z,99183.06
2019-03-08T13:37:14.360Z,99189.78
2019-03-08T13:39:46.795Z,99184.60
2019-03-08T13:42:19.190Z,99187.48
2019-03-08T13:44:51.851Z,99195.26
2019-03-08T13:47:24.239Z,99196.16
2019-03-08T13:49:57.739Z,99206.66
2019-03-08T13:52:30.070Z,99216.44
2019-03-08T13:55:02.558Z,99223.86
2019-03-08T13:57:35.010Z,99215.33
2019-03-08T14:00:07.029Z,99221.08
2019-03-08T14:02:39.290Z,99222.47
2019-03-08T14:05:12.001Z,99227.45
2019-03-08T14:07:44.727Z,99231.01
2019-03-08T14:10:17.470Z,99236.13
2019-03-08T14:12:49.881Z,99235.27
2019-03-08T14:15:22.430Z,99240.75
2019-03-08T14:17:55.111Z,99234.55
2019-03-08T14:20:28.131Z,99249.30
2019-03-08T14:23:00.470Z,99246.27
2019-03-08T14:25:32.529Z,99246.56
2019-03-08T14:28:06.060Z,99262.84
2019-03-08T14:30:45.640Z,99256.56
2019-03-08T14:33:18.132Z,99254.83
2019-03-08T14:35:50.491Z,99264.88
2019-03-08T14:38:22.850Z,99257.64
2019-03-08T14:41:19.978Z,99267.60
2019-03-08T14:44:07.763Z,99272.62
2019-03-08T14:46:56.512Z,99272.56
2019-03-08T14:49:27.438Z,99276.59
2019-03-08T14:51:59.418Z,99278.45
2019-03-08T14:54:32.020Z,99296.83
2019-03-08T14:57:04.530Z,99285.84
2019-03-08T14:59:37.018Z,99292.47
2019-03-08T15:02:13.639Z,99290.08
2019-03-08T15:04:43.460Z,99317.89
2019-03-08T15:07:14.919Z,99314.05
2019-03-08T15:09:47.390Z,99320.13
2019-03-08T15:12:20.414Z,99319.70
2019-03-08T15:14:53.070Z,99314.36
2019-03-08T15:17:25.572Z,99320.84
2019-03-08T15:19:57.890Z,99330.45
2019-03-08T15:22:29.369Z,99329.74
2019-03-08T15:25:01.690Z,99337.67
2019-03-08T15:27:34.558Z,99344.17
2019-03-08T15:30:09.440Z,99344.75
2019-03-08T15:32:42.030Z,99342.67
2019-03-08T15:35:15.354Z,99344.02
2019-03-08T15:37:48.391Z,99347.78
2019-03-08T15:40:21.306Z,99348.88
2019-03-08T15:42:53.724Z,99348.83
2019-03-08T15:45:26.270Z,99373.87
2019-03-08T15:47:58.720Z,99362.13
2019-03-08T15:50:32.732Z,99369.64
2019-03-08T15:53:05.081Z,99369.77
2019-03-08T15:55:37.560Z,99381.99
2019-03-08T15:58:09.921Z,99381.16
2019-03-08T16:00:42.341Z,99376.56
2019-03-08T16:03:14.650Z,99396.83
2019-03-08T16:05:46.059Z,99385.20
2019-03-08T16:08:18.543Z,99406.00
2019-03-08T16:10:51.088Z,99394.44
2019-03-08T16:13:23.642Z,99397.73
2019-03-08T16:15:56.001Z,99403.33
2019-03-08T16:18:28.590Z,99409.89
2019-03-08T16:21:00.930Z,99402.27
2019-03-08T16:23:33.365Z,99410.44
2019-03-08T16:26:05.979Z,99407.61
2019-03-08T16:28:38.578Z,99403.02
2019-03-08T16:31:31.208Z,99397.08
2019-03-08T16:34:03.170Z,99414.34
2019-03-08T16:36:46.280Z,99423.41
2019-03-08T16:39:48.404Z,99425.91
2019-03-08T16:42:38.090Z,99438.00
2019-03-08T16:45:32.055Z,99441.16
2019-03-08T16:48:28.861Z,99439.02
2019-03-08T16:51:06.969Z,99449.31
2019-03-08T16:54:07.679Z,99451.08
2019-03-08T16:56:59.253Z,99452.87
2019-03-08T17:00:10.450Z,99461.66
2019-03-08T17:03:01.662Z,99471.24
2019-03-08T17:05:50.002Z,99465.14
2019-03-08T17:08:44.010Z,99466.08
2019-03-08T17:11:35.218Z,99470.47
2019-03-08T17:14:27.311Z,99466.91
2019-03-08T17:17:24.309Z,99474.03
2019-03-08T17:20:15.568Z,99477.22
2019-03-08T17:23:12.739Z,99483.48
2019-03-08T17:25:52.560Z,99477.01
2019-03-08T17:28:54.776Z,99490.85
2019-03-08T17:31:35.278Z,99490.42
2019-03-08T17:34:38.797Z,99500.03
2019-03-08T17:37:26.520Z,99503.07
2019-03-08T17:40:14.520Z,99506.22
2019-03-08T17:43:14.868Z,99512.03
2019-03-08T17:45:58.735Z,99514.25
2019-03-08T17:48:59.331Z,99507.95
2019-03-08T17:51:47.839Z,99509.91
2019-03-08T17:54:35.450Z,99524.41
2019-03-08T17:57:25.328Z,99516.31
2019-03-08T18:00:11.738Z,99523.62
2019-03-08T18:03:02.963Z,99516.39
2019-03-08T18:06:02.950Z,99513.53
2019-03-08T18:08:54.351Z,99514.28
2019-03-08T18:11:45.621Z,99506.05
2019-03-08T18:14:55.128Z,99509.42
2019-03-08T18:17:55.668Z,99508.52
2019-03-08T18:20:40.883Z,99514.96
2019-03-08T18:23:24.862Z,99515.07
2019-03-08T18:26:25.290Z,99522.00
2019-03-08T18:29:16.977Z,99524.62
2019-03-08T18:32:01.290Z,99528.19
2019-03-08T18:35:02.532Z,99531.18
2019-03-08T18:38:10.120Z,99535.94
2019-03-08T18:41:07.472Z,99546.28
2019-03-08T18:44:05.968Z,99553.99
2019-03-08T18:46:56.649Z,99542.27
2019-03-08T18:49:51.215Z,99561.08
2019-03-08T18:52:50.668Z,99554.14
2019-03-08T18:55:41.839Z,99558.08
2019-03-08T18:58:30.114Z,99572.50
2019-03-08T19:01:21.378Z,99572.13
2019-03-08T19:04:08.841Z,99578.50
2019-03-08T19:07:07.138Z,99580.59
2019-03-08T19:10:46.251Z,99591.16
2019-03-08T19:13:45.961Z,99603.82
2019-03-08T19:16:37.170Z,99609.30
2019-03-08T19:19:31.360Z,99620.91
2019-03-08T19:22:12.732Z,99622.53
2019-03-08T19:25:06.751Z,99633.40
2019-03-08T19:27:51.311Z,99632.57
2019-03-08T19:30:38.310Z,99643.69
2019-03-08T19:33:35.600Z,99641.37
2019-03-08T19:36:19.695Z,99641.77
2019-03-08T19:39:23.068Z,99652.35
2019-03-08T19:42:12.980Z,99652.19
2019-03-08T19:44:53.640Z,99665.77
2019-03-08T19:47:53.850Z,99668.02
2019-03-08T19:50:45.390Z,99678.09
2019-03-08T19:53:37.401Z,99692.30
2019-03-08T19:56:31.549Z,99690.47
2019-03-08T19:59:21.472Z,99702.30
2019-03-08T20:02:21.850Z,99712.83
2019-03-08T20:05:24.269Z,99716.50
2019-03-08T20:08:15.163Z,99732.52
2019-03-08T20:11:06.370Z,99732.52
2019-03-08T20:14:03.834Z,99727.77
2019-03-08T20:16:59.425Z,99727.31
2019-03-08T20:19:48.378Z,99737.30
2019-03-08T20:22:42.717Z,99741.62
2019-03-08T20:25:43.228Z,99743.71
2019-03-08T20:28:37.548Z,99744.16
2019-03-08T20:31:29.990Z,99752.73
2019-03-08T20:34:09.511Z,99752.61
2019-03-08T20:37:06.448Z,99755.41
2019-03-08T20:40:07.875Z,99756.92
2019-03-08T20:42:51.438Z,99770.97
2019-03-08T20:45:42.677Z,99777.44
2019-03-08T20:48:16.596Z,99776.91
2019-03-08T20:50:49.122Z,99773.43
2019-03-08T20:53:21.646Z,99782.14
2019-03-08T20:55:54.160Z,99788.34
2019-03-08T20:58:26.738Z,99787.09
2019-03-08T21:00:59.640Z,99790.30
2019-03-08T21:03:32.280Z,99793.95
2019-03-08T21:06:05.748Z,99803.20
2019-03-08T21:08:38.232Z,99805.05
2019-03-08T21:11:10.740Z,99809.41
2019-03-08T21:13:44.570Z,99815.66
2019-03-08T21:16:19.490Z,99814.56
2019-03-08T21:18:52.420Z,99814.78
2019-03-08T21:21:24.953Z,99823.86
2019-03-08T21:23:57.322Z,99831.37
2019-03-08T21:26:31.059Z,99833.89
2019-03-08T21:29:03.858Z,99839.47
2019-03-08T21:31:36.499Z,99844.92
2019-03-08T21:34:08.962Z,99844.70
2019-03-08T21:36:41.949Z,99853.10
2019-03-08T21:39:14.657Z,99854.13
2019-03-08T21:41:47.475Z,99862.45
2019-03-08T21:44:20.793Z,99872.20
2019-03-08T21:46:53.626Z,99873.65
2019-03-08T21:49:26.020Z,99880.45
2019-03-08T21:51:59.598Z,99878.43
2019-03-08T21:54:31.858Z,99882.91
2019-03-08T21:57:05.554Z,99880.97
2019-03-08T21:59:38.112Z,99882.45
2019-03-08T22:02:11.628Z,99886.03
2019-03-08T22:04:47.949Z,99882.73
2019-03-08T22:07:20.759Z,99893.35
2019-03-08T22:10:15.775Z,99888.75
2019-03-08T22:12:48.280Z,99895.44
2019-03-08T22:15:20.670Z,99901.66
2019-03-08T22:17:53.080Z,99903.19
2019-03-08T22:20:25.439Z,99900.88
2019-03-08T22:22:57.778Z,99904.14
2019-03-08T22:25:30.289Z,99903.44
2019-03-08T22:28:03.120Z,99905.74
2019-03-08T22:30:37.094Z,99907.69
2019-03-08T22:33:09.509Z,99918.02
2019-03-08T22:35:42.390Z,99917.95
2019-03-08T22:38:17.168Z,99916.06
2019-03-08T22:40:54.482Z,99917.13
2019-03-08T22:43:27.027Z,99916.42
2019-03-08T22:45:59.408Z,99913.94
2019-03-08T22:48:31.868Z,99919.14
2019-03-08T22:51:04.358Z,99932.05
2019-03-08T22:53:36.780Z,99922.06
2019-03-08T22:56:10.038Z,99925.37
2019-03-08T22:58:42.475Z,99936.19
2019-03-08T23:01:17.291Z,99937.58
2019-03-08T23:03:50.849Z,99941.09
2019-03-08T23:06:24.400Z,99941.99
2019-03-08T23:08:56.958Z,99948.50
2019-03-08T23:11:29.380Z,99951.55
2019-03-08T23:14:01.749Z,99952.30
2019-03-08T23:16:34.631Z,99954.39
2019-03-08T23:19:07.175Z,99959.05
2019-03-08T23:21:39.658Z,99952.14
2019-03-08T23:24:11.900Z,99944.76
2019-03-08T23:27:07.209Z,99954.82
2019-03-08T23:29:46.658Z,99952.89
2019-03-08T23:32:30.520Z,99952.64
2019-03-08T23:35:15.864Z,99955.52
2019-03-08T23:37:48.268Z,99958.74
2019-03-08T23:40:20.710Z,99959.41
2019-03-08T23:42:53.100Z,99960.02
2019-03-08T23:45:25.578Z,99968.84
2019-03-08T23:48:04.661Z,99965.48
2019-03-08T23:50:34.919Z,99971.27
2019-03-08T23:53:07.358Z,99975.39
2019-03-08T23:55:47.780Z,99975.56
2019-03-08T23:58:21.128Z,99980.07
